sensor_id;sensor_type;location;lat;lon;timestamp;pressure;altitude;pressure_sealevel;temperature;humidity
788;BME280;16074;42.708;23.312;2023-05-10T00:01:40;140645.31;;;9.67;100.00
788;BME280;16074;42.708;23.312;2023-05-10T00:04:08;140650.13;;;9.69;100.00
788;BME280;16074;42.708;23.312;2023-05-10T00:06:36;140641.69;;;9.66;100.00
788;BME280;16074;42.708;23.312;2023-05-10T00:09:05;140627.31;;;9.60;100.00
788;BME280;16074;42.708;23.312;2023-05-10T00:11:33;140630.88;;;9.61;100.00
788;BME280;16074;42.708;23.312;2023-05-10T00:14:01;140615.25;;;9.55;100.00
788;BME280;16074;42.708;23.312;2023-05-10T00:16:31;140598.41;;;9.48;100.00
788;BME280;16074;42.708;23.312;2023-05-10T00:18:59;140587.56;;;9.43;100.00
788;BME280;16074;42.708;23.312;2023-05-10T00:21:27;140574.34;;;9.38;100.00
788;BME280;16074;42.708;23.312;2023-05-10T00:23:56;140569.53;;;9.36;100.00
788;BME280;16074;42.708;23.312;2023-05-10T00:26:24;140564.72;;;9.34;100.00
788;BME280;16074;42.708;23.312;2023-05-10T00:28:55;140556.34;;;9.31;100.00
788;BME280;16074;42.708;23.312;2023-05-10T00:31:23;140551.53;;;9.29;100.00
788;BME280;16074;42.708;23.312;2023-05-10T00:33:53;140561.16;;;9.33;100.00
788;BME280;16074;42.708;23.312;2023-05-10T00:36:21;140547.88;;;9.27;100.00
788;BME280;16074;42.708;23.312;2023-05-10T00:38:49;140539.50;;;9.24;100.00
788;BME280;16074;42.708;23.312;2023-05-10T00:41:18;140531.03;;;9.20;100.00
788;BME280;16074;42.708;23.312;2023-05-10T00:43:47;140533.44;;;9.21;100.00
788;BME280;16074;42.708;23.312;2023-05-10T00:46:16;140531.03;;;9.20;100.00
788;BME280;16074;42.708;23.312;2023-05-10T00:48:44;140531.03;;;9.20;100.00
788;BME280;16074;42.708;23.312;2023-05-10T00:51:14;140537.09;;;9.23;100.00
788;BME280;16074;42.708;23.312;2023-05-10T00:53:44;140522.66;;;9.17;100.00
788;BME280;16074;42.708;23.312;2023-05-10T00:56:13;140527.47;;;9.19;100.00
788;BME280;16074;42.708;23.312;2023-05-10T00:58:42;140521.44;;;9.16;100.00
788;BME280;16074;42.708;23.312;2023-05-10T01:01:10;140525.06;;;9.18;100.00
788;BME280;16074;42.708;23.312;2023-05-10T01:03:40;140522.66;;;9.17;100.00
788;BME280;16074;42.708;23.312;2023-05-10T01:06:08;140525.06;;;9.18;100.00
788;BME280;16074;42.708;23.312;2023-05-10T01:08:39;140516.63;;;9.14;100.00
788;BME280;16074;42.708;23.312;2023-05-10T01:11:08;140515.44;;;9.14;100.00
788;BME280;16074;42.708;23.312;2023-05-10T01:13:39;140508.22;;;9.11;100.00
788;BME280;16074;42.708;23.312;2023-05-10T01:16:09;140507.00;;;9.10;100.00
788;BME280;16074;42.708;23.312;2023-05-10T01:18:39;140511.81;;;9.12;100.00
788;BME280;16074;42.708;23.312;2023-05-10T01:21:17;140509.41;;;9.11;100.00
788;BME280;16074;42.708;23.312;2023-05-10T01:27:28;140491.38;;;9.04;100.00
788;BME280;16074;42.708;23.312;2023-05-10T01:33:23;140473.34;;;8.96;100.00
788;BME280;16074;42.708;23.312;2023-05-10T01:35:59;140475.75;;;8.97;100.00
788;BME280;16074;42.708;23.312;2023-05-10T01:38:38;140464.91;;;8.93;100.00
788;BME280;16074;42.708;23.312;2023-05-10T01:41:13;140452.91;;;8.88;100.00
788;BME280;16074;42.708;23.312;2023-05-10T01:43:49;140437.28;;;8.81;100.00
788;BME280;16074;42.708;23.312;2023-05-10T01:46:26;140450.50;;;8.87;100.00
788;BME280;16074;42.708;23.312;2023-05-10T01:48:58;140438.47;;;8.82;100.00
788;BME280;16074;42.708;23.312;2023-05-10T01:51:35;140420.44;;;8.74;100.00
788;BME280;16074;42.708;23.312;2023-05-10T01:54:04;140431.25;;;8.79;100.00
788;BME280;16074;42.708;23.312;2023-05-10T01:56:35;140426.47;;;8.77;100.00
788;BME280;16074;42.708;23.312;2023-05-10T01:59:11;140427.66;;;8.77;100.00
788;BME280;16074;42.708;23.312;2023-05-10T02:01:41;140421.69;;;8.75;100.00
788;BME280;16074;42.708;23.312;2023-05-10T02:04:13;140425.25;;;8.76;100.00
788;BME280;16074;42.708;23.312;2023-05-10T02:06:46;140426.47;;;8.77;100.00
788;BME280;16074;42.708;23.312;2023-05-10T02:09:17;140421.69;;;8.75;100.00
788;BME280;16074;42.708;23.312;2023-05-10T02:11:47;140407.25;;;8.69;100.00
788;BME280;16074;42.708;23.312;2023-05-10T02:14:18;140418.03;;;8.73;100.00
788;BME280;16074;42.708;23.312;2023-05-10T02:16:47;140407.25;;;8.69;100.00
788;BME280;16074;42.708;23.312;2023-05-10T02:19:19;140408.44;;;8.69;100.00
788;BME280;16074;42.708;23.312;2023-05-10T02:21:49;140401.22;;;8.66;100.00
788;BME280;16074;42.708;23.312;2023-05-10T02:24:19;140395.22;;;8.64;100.00
788;BME280;16074;42.708;23.312;2023-05-10T02:26:49;140398.81;;;8.65;100.00
788;BME280;16074;42.708;23.312;2023-05-10T02:29:19;140396.41;;;8.64;100.00
788;BME280;16074;42.708;23.312;2023-05-10T02:31:51;140398.81;;;8.65;100.00
788;BME280;16074;42.708;23.312;2023-05-10T02:34:23;140372.34;;;8.54;100.00
788;BME280;16074;42.708;23.312;2023-05-10T02:36:55;140366.38;;;8.52;100.00
788;BME280;16074;42.708;23.312;2023-05-10T02:39:24;140332.72;;;8.38;100.00
788;BME280;16074;42.708;23.312;2023-05-10T02:41:57;140317.09;;;8.31;100.00
788;BME280;16074;42.708;23.312;2023-05-10T02:44:26;140302.69;;;8.26;100.00
788;BME280;16074;42.708;23.312;2023-05-10T02:46:58;140306.28;;;8.27;100.00
788;BME280;16074;42.708;23.312;2023-05-10T02:49:29;140288.25;;;8.20;100.00
788;BME280;16074;42.708;23.312;2023-05-10T02:52:00;140261.78;;;8.09;100.00
788;BME280;16074;42.708;23.312;2023-05-10T02:54:32;140231.78;;;7.96;100.00
788;BME280;16074;42.708;23.312;2023-05-10T02:57:04;140224.56;;;7.93;100.00
788;BME280;16074;42.708;23.312;2023-05-10T02:59:34;140223.38;;;7.93;100.00
788;BME280;16074;42.708;23.312;2023-05-10T03:02:03;140190.91;;;7.79;100.00
788;BME280;16074;42.708;23.312;2023-05-10T03:04:33;140207.75;;;7.86;100.00
788;BME280;16074;42.708;23.312;2023-05-10T03:07:01;140195.72;;;7.81;100.00
788;BME280;16074;42.708;23.312;2023-05-10T03:09:30;140199.34;;;7.83;100.00
788;BME280;16074;42.708;23.312;2023-05-10T03:12:03;140201.75;;;7.84;100.00
788;BME280;16074;42.708;23.312;2023-05-10T03:14:45;140207.75;;;7.86;100.00
788;BME280;16074;42.708;23.312;2023-05-10T03:17:22;140206.56;;;7.86;100.00
788;BME280;16074;42.708;23.312;2023-05-10T03:19:55;140200.53;;;7.83;100.00
788;BME280;16074;42.708;23.312;2023-05-10T03:22:28;140200.53;;;7.83;100.00
788;BME280;16074;42.708;23.312;2023-05-10T03:25:00;140192.16;;;7.80;100.00
788;BME280;16074;42.708;23.312;2023-05-10T03:27:35;140194.56;;;7.81;100.00
788;BME280;16074;42.708;23.312;2023-05-10T03:30:06;140199.34;;;7.83;100.00
788;BME280;16074;42.708;23.312;2023-05-10T03:32:36;140193.31;;;7.80;100.00
788;BME280;16074;42.708;23.312;2023-05-10T03:35:08;140202.94;;;7.84;100.00
788;BME280;16074;42.708;23.312;2023-05-10T03:37:37;140208.97;;;7.87;100.00
788;BME280;16074;42.708;23.312;2023-05-10T03:40:06;140194.56;;;7.81;100.00
788;BME280;16074;42.708;23.312;2023-05-10T03:42:37;140189.75;;;7.79;100.00
788;BME280;16074;42.708;23.312;2023-05-10T03:45:06;140196.94;;;7.82;100.00
788;BME280;16074;42.708;23.312;2023-05-10T03:47:34;140194.56;;;7.81;100.00
788;BME280;16074;42.708;23.312;2023-05-10T03:50:04;140196.94;;;7.82;100.00
788;BME280;16074;42.708;23.312;2023-05-10T03:52:34;140202.94;;;7.84;100.00
788;BME280;16074;42.708;23.312;2023-05-10T03:55:03;140210.16;;;7.87;100.00
788;BME280;16074;42.708;23.312;2023-05-10T03:57:31;140196.94;;;7.82;100.00
788;BME280;16074;42.708;23.312;2023-05-10T04:00:00;140202.94;;;7.84;100.00
788;BME280;16074;42.708;23.312;2023-05-10T04:02:40;140198.13;;;7.82;100.00
788;BME280;16074;42.708;23.312;2023-05-10T04:05:15;140208.97;;;7.87;100.00
788;BME280;16074;42.708;23.312;2023-05-10T04:07:44;140212.53;;;7.88;100.00
788;BME280;16074;42.708;23.312;2023-05-10T04:10:14;140218.56;;;7.91;100.00
788;BME280;16074;42.708;23.312;2023-05-10T04:12:43;140225.72;;;7.94;100.00
788;BME280;16074;42.708;23.312;2023-05-10T04:15:12;140218.56;;;7.91;100.00
788;BME280;16074;42.708;23.312;2023-05-10T04:17:40;140223.38;;;7.93;100.00
788;BME280;16074;42.708;23.312;2023-05-10T04:20:09;140212.53;;;7.88;100.00
788;BME280;16074;42.708;23.312;2023-05-10T04:22:38;140219.75;;;7.91;100.00
788;BME280;16074;42.708;23.312;2023-05-10T04:25:08;140217.34;;;7.90;100.00
788;BME280;16074;42.708;23.312;2023-05-10T04:27:37;140207.75;;;7.86;100.00
788;BME280;16074;42.708;23.312;2023-05-10T04:30:06;140207.75;;;7.86;100.00
788;BME280;16074;42.708;23.312;2023-05-10T04:32:35;140207.75;;;7.86;100.00
788;BME280;16074;42.708;23.312;2023-05-10T04:35:03;140202.94;;;7.84;100.00
788;BME280;16074;42.708;23.312;2023-05-10T04:37:32;140212.53;;;7.88;100.00
788;BME280;16074;42.708;23.312;2023-05-10T04:40:00;140210.16;;;7.87;100.00
788;BME280;16074;42.708;23.312;2023-05-10T04:42:30;140219.75;;;7.91;100.00
788;BME280;16074;42.708;23.312;2023-05-10T04:44:58;140223.38;;;7.93;100.00
788;BME280;16074;42.708;23.312;2023-05-10T04:47:26;140210.16;;;7.87;100.00
788;BME280;16074;42.708;23.312;2023-05-10T04:49:54;140214.94;;;7.89;100.00
788;BME280;16074;42.708;23.312;2023-05-10T04:52:23;140214.94;;;7.89;100.00
788;BME280;16074;42.708;23.312;2023-05-10T04:54:51;140226.97;;;7.94;100.00
788;BME280;16074;42.708;23.312;2023-05-10T04:57:19;140232.94;;;7.97;100.00
788;BME280;16074;42.708;23.312;2023-05-10T04:59:49;140228.13;;;7.95;100.00
788;BME280;16074;42.708;23.312;2023-05-10T05:02:17;140238.97;;;7.99;100.00
788;BME280;16074;42.708;23.312;2023-05-10T05:04:46;140252.16;;;8.05;100.00
788;BME280;16074;42.708;23.312;2023-05-10T05:07:14;140254.56;;;8.06;100.00
788;BME280;16074;42.708;23.312;2023-05-10T05:09:42;140260.59;;;8.08;100.00
788;BME280;16074;42.708;23.312;2023-05-10T05:12:10;140270.22;;;8.12;100.00
788;BME280;16074;42.708;23.312;2023-05-10T05:14:41;140270.22;;;8.12;100.00
788;BME280;16074;42.708;23.312;2023-05-10T05:17:10;140271.41;;;8.13;100.00
788;BME280;16074;42.708;23.312;2023-05-10T05:19:39;140279.84;;;8.16;100.00
788;BME280;16074;42.708;23.312;2023-05-10T05:22:07;140291.91;;;8.21;100.00
788;BME280;16074;42.708;23.312;2023-05-10T05:24:36;140284.69;;;8.18;100.00
788;BME280;16074;42.708;23.312;2023-05-10T05:27:05;140295.47;;;8.23;100.00
788;BME280;16074;42.708;23.312;2023-05-10T05:29:33;140295.47;;;8.23;100.00
788;BME280;16074;42.708;23.312;2023-05-10T05:32:02;140297.88;;;8.24;100.00
788;BME280;16074;42.708;23.312;2023-05-10T05:34:32;140296.66;;;8.23;100.00
788;BME280;16074;42.708;23.312;2023-05-10T05:37:00;140299.06;;;8.24;100.00
788;BME280;16074;42.708;23.312;2023-05-10T05:39:28;140300.28;;;8.25;100.00
788;BME280;16074;42.708;23.312;2023-05-10T05:41:56;140300.28;;;8.25;100.00
788;BME280;16074;42.708;23.312;2023-05-10T05:44:25;140308.69;;;8.28;100.00
788;BME280;16074;42.708;23.312;2023-05-10T05:46:55;140314.72;;;8.30;100.00
788;BME280;16074;42.708;23.312;2023-05-10T05:49:24;140312.31;;;8.29;100.00
788;BME280;16074;42.708;23.312;2023-05-10T05:51:53;140318.28;;;8.32;100.00
788;BME280;16074;42.708;23.312;2023-05-10T05:54:21;140320.69;;;8.33;100.00
788;BME280;16074;42.708;23.312;2023-05-10T05:56:49;140311.06;;;8.29;100.00
788;BME280;16074;42.708;23.312;2023-05-10T05:59:18;140311.06;;;8.29;100.00
788;BME280;16074;42.708;23.312;2023-05-10T06:01:46;140295.47;;;8.23;100.00
788;BME280;16074;42.708;23.312;2023-05-10T06:04:14;140306.28;;;8.27;100.00
788;BME280;16074;42.708;23.312;2023-05-10T06:06:43;140313.47;;;8.30;100.00
788;BME280;16074;42.708;23.312;2023-05-10T06:09:12;140318.28;;;8.32;100.00
788;BME280;16074;42.708;23.312;2023-05-10T06:11:41;140320.69;;;8.33;100.00
788;BME280;16074;42.708;23.312;2023-05-10T06:14:09;140320.69;;;8.33;100.00
788;BME280;16074;42.708;23.312;2023-05-10T06:16:38;140315.88;;;8.31;100.00
788;BME280;16074;42.708;23.312;2023-05-10T06:19:06;140315.88;;;8.31;100.00
788;BME280;16074;42.708;23.312;2023-05-10T06:21:34;140321.91;;;8.33;100.00
788;BME280;16074;42.708;23.312;2023-05-10T06:24:03;140329.13;;;8.36;100.00
788;BME280;16074;42.708;23.312;2023-05-10T06:26:33;140332.72;;;8.38;100.00
788;BME280;16074;42.708;23.312;2023-05-10T06:29:01;140326.72;;;8.35;100.00
788;BME280;16074;42.708;23.312;2023-05-10T06:31:30;140326.72;;;8.35;100.00
788;BME280;16074;42.708;23.312;2023-05-10T06:33:58;140317.09;;;8.31;100.00
788;BME280;16074;42.708;23.312;2023-05-10T06:36:26;140321.91;;;8.33;100.00
788;BME280;16074;42.708;23.312;2023-05-10T06:38:54;140325.50;;;8.35;100.00
788;BME280;16074;42.708;23.312;2023-05-10T06:41:23;140336.34;;;8.39;100.00
788;BME280;16074;42.708;23.312;2023-05-10T06:43:52;140354.34;;;8.47;100.00
788;BME280;16074;42.708;23.312;2023-05-10T06:46:20;140367.56;;;8.52;100.00
788;BME280;16074;42.708;23.312;2023-05-10T06:48:49;140372.34;;;8.54;100.00
788;BME280;16074;42.708;23.312;2023-05-10T06:51:17;140381.97;;;8.58;100.00
788;BME280;16074;42.708;23.312;2023-05-10T06:53:46;140406.03;;;8.68;100.00
788;BME280;16074;42.708;23.312;2023-05-10T06:56:14;140408.44;;;8.69;100.00
788;BME280;16074;42.708;23.312;2023-05-10T06:58:42;140419.28;;;8.74;100.00
788;BME280;16074;42.708;23.312;2023-05-10T07:01:12;140432.47;;;8.79;100.00
788;BME280;16074;42.708;23.312;2023-05-10T07:03:40;140443.28;;;8.84;100.00
788;BME280;16074;42.708;23.312;2023-05-10T07:06:08;140444.50;;;8.84;100.00
788;BME280;16074;42.708;23.312;2023-05-10T07:08:51;140451.72;;;8.87;100.00
788;BME280;16074;42.708;23.312;2023-05-10T07:11:19;140457.69;;;8.90;100.00
788;BME280;16074;42.708;23.312;2023-05-10T07:13:48;140443.28;;;8.84;100.00
788;BME280;16074;42.708;23.312;2023-05-10T07:16:18;140454.13;;;8.88;100.00
788;BME280;16074;42.708;23.312;2023-05-10T07:18:46;140451.72;;;8.87;100.00
788;BME280;16074;42.708;23.312;2023-05-10T07:21:14;140456.53;;;8.89;100.00
788;BME280;16074;42.708;23.312;2023-05-10T07:23:43;140482.97;;;9.00;100.00
788;BME280;16074;42.708;23.312;2023-05-10T07:26:11;140484.16;;;9.01;100.00
788;BME280;16074;42.708;23.312;2023-05-10T07:28:39;140488.97;;;9.03;100.00
788;BME280;16074;42.708;23.312;2023-05-10T07:31:07;140525.06;;;9.18;100.00
788;BME280;16074;42.708;23.312;2023-05-10T07:33:37;140510.63;;;9.12;100.00
788;BME280;16074;42.708;23.312;2023-05-10T07:36:06;140511.81;;;9.12;100.00
788;BME280;16074;42.708;23.312;2023-05-10T07:38:34;140521.44;;;9.16;100.00
788;BME280;16074;42.708;23.312;2023-05-10T07:41:06;140544.31;;;9.26;100.00
788;BME280;16074;42.708;23.312;2023-05-10T07:43:34;140547.88;;;9.27;100.00
788;BME280;16074;42.708;23.312;2023-05-10T07:46:03;140574.34;;;9.38;100.00
788;BME280;16074;42.708;23.312;2023-05-10T07:48:32;140575.53;;;9.39;100.00
788;BME280;16074;42.708;23.312;2023-05-10T07:51:02;140581.56;;;9.41;100.00
788;BME280;16074;42.708;23.312;2023-05-10T07:53:30;140596.00;;;9.47;100.00
788;BME280;16074;42.708;23.312;2023-05-10T07:55:58;140598.41;;;9.48;100.00
788;BME280;16074;42.708;23.312;2023-05-10T07:58:27;140611.63;;;9.53;100.00
788;BME280;16074;42.708;23.312;2023-05-10T08:00:55;140623.66;;;9.58;100.00
788;BME280;16074;42.708;23.312;2023-05-10T08:03:24;140641.69;;;9.66;100.00
788;BME280;16074;42.708;23.312;2023-05-10T08:05:52;140658.53;;;9.73;100.00
788;BME280;16074;42.708;23.312;2023-05-10T08:08:22;140645.31;;;9.67;100.00
788;BME280;16074;42.708;23.312;2023-05-10T08:10:50;140644.09;;;9.67;100.00
788;BME280;16074;42.708;23.312;2023-05-10T08:13:19;140663.34;;;9.75;100.00
788;BME280;16074;42.708;23.312;2023-05-10T08:15:47;140676.63;;;9.80;100.00
788;BME280;16074;42.708;23.312;2023-05-10T08:18:15;140683.84;;;9.83;100.00
788;BME280;16074;42.708;23.312;2023-05-10T08:20:44;140700.69;;;9.90;100.00
788;BME280;16074;42.708;23.312;2023-05-10T08:23:12;140712.69;;;9.95;100.00
788;BME280;16074;42.708;23.312;2023-05-10T08:25:42;140713.91;;;9.96;100.00
788;BME280;16074;42.708;23.312;2023-05-10T08:28:10;140739.22;;;10.06;100.00
788;BME280;16074;42.708;23.312;2023-05-10T08:30:39;140747.66;;;10.10;100.00
788;BME280;16074;42.708;23.312;2023-05-10T08:33:07;140723.59;;;10.00;100.00
788;BME280;16074;42.708;23.312;2023-05-10T08:35:35;140694.66;;;9.88;100.00
788;BME280;16074;42.708;23.312;2023-05-10T08:38:04;140682.63;;;9.83;100.00
788;BME280;16074;42.708;23.312;2023-05-10T08:40:32;140662.19;;;9.74;100.00
788;BME280;16074;42.708;23.312;2023-05-10T08:43:06;140648.91;;;9.69;100.00
788;BME280;16074;42.708;23.312;2023-05-10T08:45:37;140650.13;;;9.69;100.00
788;BME280;16074;42.708;23.312;2023-05-10T08:48:06;140645.31;;;9.67;100.00
788;BME280;16074;42.708;23.312;2023-05-10T08:50:36;140670.56;;;9.78;100.00
788;BME280;16074;42.708;23.312;2023-05-10T08:53:06;140680.22;;;9.82;100.00
788;BME280;16074;42.708;23.312;2023-05-10T08:55:37;140683.84;;;9.83;100.00
788;BME280;16074;42.708;23.312;2023-05-10T08:58:08;140676.63;;;9.80;100.00
788;BME280;16074;42.708;23.312;2023-05-10T09:00:37;140689.84;;;9.86;100.00
788;BME280;16074;42.708;23.312;2023-05-10T09:03:05;140704.28;;;9.92;100.00
788;BME280;16074;42.708;23.312;2023-05-10T09:05:36;140735.63;;;10.05;100.00
788;BME280;16074;42.708;23.312;2023-05-10T09:08:04;140754.88;;;10.13;100.00
788;BME280;16074;42.708;23.312;2023-05-10T09:10:33;140795.78;;;10.30;100.00
788;BME280;16074;42.708;23.312;2023-05-10T09:13:02;140806.66;;;10.34;100.00
788;BME280;16074;42.708;23.312;2023-05-10T09:15:32;140828.31;;;10.43;100.00
788;BME280;16074;42.708;23.312;2023-05-10T09:18:00;140848.78;;;10.52;100.00
788;BME280;16074;42.708;23.312;2023-05-10T09:20:29;140841.53;;;10.49;100.00
788;BME280;16074;42.708;23.312;2023-05-10T09:22:57;140822.28;;;10.41;100.00
788;BME280;16074;42.708;23.312;2023-05-10T09:25:27;140812.63;;;10.37;100.00
788;BME280;16074;42.708;23.312;2023-05-10T09:27:55;140843.97;;;10.50;100.00
788;BME280;16074;42.708;23.312;2023-05-10T09:30:25;140843.97;;;10.50;100.00
788;BME280;16074;42.708;23.312;2023-05-10T09:32:56;140864.41;;;10.58;100.00
788;BME280;16074;42.708;23.312;2023-05-10T09:35:28;140871.63;;;10.61;100.00
788;BME280;16074;42.708;23.312;2023-05-10T09:38:03;140893.31;;;10.70;100.00
788;BME280;16074;42.708;23.312;2023-05-10T09:40:31;140917.41;;;10.80;100.00
788;BME280;16074;42.708;23.312;2023-05-10T09:43:02;140934.28;;;10.87;100.00
788;BME280;16074;42.708;23.312;2023-05-10T09:45:31;140943.91;;;10.91;100.00
788;BME280;16074;42.708;23.312;2023-05-10T09:48:06;140951.16;;;10.94;100.00
788;BME280;16074;42.708;23.312;2023-05-10T09:50:34;140959.56;;;10.97;100.00
788;BME280;16074;42.708;23.312;2023-05-10T09:53:03;140970.44;;;11.02;100.00
788;BME280;16074;42.708;23.312;2023-05-10T09:55:39;140941.50;;;10.90;100.00
788;BME280;16074;42.708;23.312;2023-05-10T09:58:08;140937.88;;;10.88;100.00
788;BME280;16074;42.708;23.312;2023-05-10T10:00:38;140934.28;;;10.87;100.00
788;BME280;16074;42.708;23.312;2023-05-10T10:03:13;140923.41;;;10.82;100.00
788;BME280;16074;42.708;23.312;2023-05-10T10:05:43;140935.47;;;10.87;100.00
788;BME280;16074;42.708;23.312;2023-05-10T10:08:12;140952.34;;;10.94;100.00
788;BME280;16074;42.708;23.312;2023-05-10T10:10:41;140957.16;;;10.96;100.00
788;BME280;16074;42.708;23.312;2023-05-10T10:13:12;140963.19;;;10.99;100.00
788;BME280;16074;42.708;23.312;2023-05-10T10:15:42;140974.00;;;11.03;100.00
788;BME280;16074;42.708;23.312;2023-05-10T10:18:14;140974.00;;;11.03;100.00
788;BME280;16074;42.708;23.312;2023-05-10T10:20:42;141005.34;;;11.16;100.00
788;BME280;16074;42.708;23.312;2023-05-10T10:23:11;141005.34;;;11.16;100.00
788;BME280;16074;42.708;23.312;2023-05-10T10:25:44;141015.00;;;11.20;100.00
788;BME280;16074;42.708;23.312;2023-05-10T10:28:26;141011.34;;;11.19;100.00
788;BME280;16074;42.708;23.312;2023-05-10T10:31:02;;;;11.24;
788;BME280;16074;42.708;23.312;2023-05-10T10:33:54;141059.56;;;11.39;100.00
788;BME280;16074;42.708;23.312;2023-05-10T10:36:23;141057.16;;;11.38;100.00
788;BME280;16074;42.708;23.312;2023-05-10T10:39:00;141063.16;;;11.40;100.00
788;BME280;16074;42.708;23.312;2023-05-10T10:41:32;141072.81;;;11.44;100.00
788;BME280;16074;42.708;23.312;2023-05-10T10:44:35;141082.44;;;11.48;100.00
788;BME280;16074;42.708;23.312;2023-05-10T10:47:05;141070.41;;;11.43;100.00
788;BME280;16074;42.708;23.312;2023-05-10T10:49:48;141092.09;;;11.52;100.00
788;BME280;16074;42.708;23.312;2023-05-10T10:52:23;141098.19;;;11.55;100.00
788;BME280;16074;42.708;23.312;2023-05-10T10:55:00;141092.09;;;11.52;100.00
788;BME280;16074;42.708;23.312;2023-05-10T10:57:43;141089.69;;;11.51;100.00
788;BME280;16074;42.708;23.312;2023-05-10T11:00:22;141094.50;;;11.53;100.00
788;BME280;16074;42.708;23.312;2023-05-10T11:02:52;141115.03;;;11.62;100.00
788;BME280;16074;42.708;23.312;2023-05-10T11:05:37;141080.03;;;11.47;100.00
788;BME280;16074;42.708;23.312;2023-05-10T11:08:15;141101.78;;;11.56;100.00
788;BME280;16074;42.708;23.312;2023-05-10T11:11:02;141101.78;;;11.56;100.00
788;BME280;16074;42.708;23.312;2023-05-10T11:13:37;141125.91;;;11.66;100.00
788;BME280;16074;42.708;23.312;2023-05-10T11:16:14;141145.19;;;11.74;100.00
788;BME280;16074;42.708;23.312;2023-05-10T11:19:05;141189.78;;;11.92;99.53
788;BME280;16074;42.708;23.312;2023-05-10T11:21:45;141213.91;;;12.02;98.26
788;BME280;16074;42.708;23.312;2023-05-10T11:24:15;141223.56;;;12.06;97.28
788;BME280;16074;42.708;23.312;2023-05-10T11:26:44;141210.25;;;12.01;95.79
788;BME280;16074;42.708;23.312;2023-05-10T11:29:13;141192.19;;;11.93;95.70
788;BME280;16074;42.708;23.312;2023-05-10T11:31:42;141176.53;;;11.87;97.79
788;BME280;16074;42.708;23.312;2023-05-10T11:34:13;141175.31;;;11.87;99.40
788;BME280;16074;42.708;23.312;2023-05-10T11:36:53;141188.56;;;11.92;98.55
788;BME280;16074;42.708;23.312;2023-05-10T11:39:25;141174.13;;;11.86;99.58
788;BME280;16074;42.708;23.312;2023-05-10T11:41:54;141200.63;;;11.97;99.25
788;BME280;16074;42.708;23.312;2023-05-10T11:44:23;141217.50;;;12.04;100.00
788;BME280;16074;42.708;23.312;2023-05-10T11:46:51;141231.97;;;12.10;99.92
788;BME280;16074;42.708;23.312;2023-05-10T11:49:20;141231.97;;;12.10;99.03
788;BME280;16074;42.708;23.312;2023-05-10T11:51:52;141244.03;;;12.15;97.82
788;BME280;16074;42.708;23.312;2023-05-10T11:54:20;141224.75;;;12.07;97.77
788;BME280;16074;42.708;23.312;2023-05-10T11:56:49;141204.25;;;11.98;98.28
788;BME280;16074;42.708;23.312;2023-05-10T11:59:18;141216.31;;;12.03;98.49
788;BME280;16074;42.708;23.312;2023-05-10T12:01:46;141234.38;;;12.11;99.04
788;BME280;16074;42.708;23.312;2023-05-10T12:04:14;141231.97;;;12.10;98.36
788;BME280;16074;42.708;23.312;2023-05-10T12:06:43;141234.38;;;12.11;98.34
788;BME280;16074;42.708;23.312;2023-05-10T12:09:14;141210.25;;;12.01;99.74
788;BME280;16074;42.708;23.312;2023-05-10T12:11:49;141204.25;;;11.98;98.81
788;BME280;16074;42.708;23.312;2023-05-10T12:14:17;141194.59;;;11.94;100.00
788;BME280;16074;42.708;23.312;2023-05-10T12:16:47;141189.78;;;11.92;99.83
788;BME280;16074;42.708;23.312;2023-05-10T12:19:18;141205.44;;;11.99;100.00
788;BME280;16074;42.708;23.312;2023-05-10T12:21:47;141197.03;;;11.95;100.00
788;BME280;16074;42.708;23.312;2023-05-10T12:24:17;141217.50;;;12.04;99.33
788;BME280;16074;42.708;23.312;2023-05-10T12:26:46;141217.50;;;12.04;98.72
788;BME280;16074;42.708;23.312;2023-05-10T12:29:16;141229.56;;;12.09;100.00
788;BME280;16074;42.708;23.312;2023-05-10T12:31:52;141238.03;;;12.12;98.04
788;BME280;16074;42.708;23.312;2023-05-10T12:34:25;141217.50;;;12.04;98.31
788;BME280;16074;42.708;23.312;2023-05-10T12:36:54;141209.09;;;12.00;98.85
788;BME280;16074;42.708;23.312;2023-05-10T12:39:24;141213.91;;;12.02;98.38
788;BME280;16074;42.708;23.312;2023-05-10T12:41:52;141210.25;;;12.01;98.31
788;BME280;16074;42.708;23.312;2023-05-10T12:44:20;141233.22;;;12.10;99.76
788;BME280;16074;42.708;23.312;2023-05-10T12:46:49;141254.88;;;12.19;98.71
788;BME280;16074;42.708;23.312;2023-05-10T12:49:17;141252.47;;;12.18;96.26
788;BME280;16074;42.708;23.312;2023-05-10T12:51:46;141253.69;;;12.19;95.88
788;BME280;16074;42.708;23.312;2023-05-10T12:54:14;141230.78;;;12.09;96.49
788;BME280;16074;42.708;23.312;2023-05-10T12:56:44;141234.38;;;12.11;97.94
788;BME280;16074;42.708;23.312;2023-05-10T12:59:12;141234.38;;;12.11;95.66
788;BME280;16074;42.708;23.312;2023-05-10T13:01:40;141241.63;;;12.14;97.16
788;BME280;16074;42.708;23.312;2023-05-10T13:04:09;141223.56;;;12.06;97.57
788;BME280;16074;42.708;23.312;2023-05-10T13:06:37;141235.63;;;12.11;98.27
788;BME280;16074;42.708;23.312;2023-05-10T13:09:05;141258.50;;;12.21;96.27
788;BME280;16074;42.708;23.312;2023-05-10T13:11:34;141251.28;;;12.18;96.35
788;BME280;16074;42.708;23.312;2023-05-10T13:14:03;141266.94;;;12.24;97.42
788;BME280;16074;42.708;23.312;2023-05-10T13:16:32;141273.00;;;12.27;97.03
788;BME280;16074;42.708;23.312;2023-05-10T13:19:00;141285.06;;;12.32;96.60
788;BME280;16074;42.708;23.312;2023-05-10T13:21:29;141281.41;;;12.30;95.77